Time;durP1;ratioP1;P1;durP2;ratioP2;P2;SDS_P1;SDS_P2;PMS_P1;PMS_P2;Temp;Humidity;BMP_temperature;BMP_pressure;BME280_temperature;BME280_humidity;BME280_pressure;Samples;Min_cycle;Max_cycle;Signal;HPM_P1;HPM_P2
2021/09/06 00:01:07;;;;;;;12.95;8.55;;;11.90;99.90;;;;;;5038886;28;20029;-50
2021/09/06 00:03:33;;;;;;;11.40;9.30;;;11.90;99.90;;;;;;5042908;28;20044;-47
2021/09/06 00:05:59;;;;;;;12.98;8.50;;;11.80;99.90;;;;;;5041541;28;20025;-47
2021/09/06 00:08:26;;;;;;;13.68;9.90;;;11.80;99.90;;;;;;5042794;28;20049;-46
2021/09/06 00:11:05;;;;;;;12.45;8.32;;;11.80;99.90;;;;;;5042079;28;20100;-47
2021/09/06 00:13:30;;;;;;;11.50;7.93;;;11.70;99.90;;;;;;5035094;28;20017;-48
2021/09/06 00:15:56;;;;;;;11.00;8.05;;;11.70;99.90;;;;;;5042122;28;20025;-50
2021/09/06 00:18:22;;;;;;;12.00;9.80;;;11.70;99.90;;;;;;5041722;28;20036;-49
2021/09/06 00:20:48;;;;;;;8.70;7.35;;;11.70;99.90;;;;;;5041268;28;20023;-50
2021/09/06 00:23:13;;;;;;;12.18;8.52;;;11.60;99.90;;;;;;5037212;28;20091;-47
2021/09/06 00:25:40;;;;;;;10.80;9.70;;;11.60;99.90;;;;;;5039789;28;20060;-47
2021/09/06 00:28:06;;;;;;;10.95;8.35;;;11.50;99.90;;;;;;5036223;28;20009;-50
2021/09/06 00:30:32;;;;;;;11.40;8.23;;;11.50;99.90;;;;;;5042123;28;20761;-48
2021/09/06 00:32:58;;;;;;;10.73;8.10;;;11.50;99.90;;;;;;5034845;28;20033;-46
2021/09/06 00:35:23;;;;;;;12.20;8.43;;;11.50;99.90;;;;;;5041931;28;20079;-49
2021/09/06 00:37:49;;;;;;;11.57;7.85;;;11.50;99.90;;;;;;5041914;28;20021;-50
2021/09/06 00:40:17;;;;;;;13.25;9.18;;;11.50;99.90;;;;;;5038708;28;20033;-47
2021/09/06 00:42:43;;;;;;;12.10;8.98;;;11.40;99.90;;;;;;5042839;28;20352;-53
2021/09/06 00:45:09;;;;;;;10.98;8.10;;;11.40;99.90;;;;;;5035929;28;20032;-52
2021/09/06 00:47:36;;;;;;;9.75;7.55;;;11.40;99.90;;;;;;5042260;28;20028;-49
2021/09/06 00:50:06;;;;;;;10.35;8.00;;;11.30;99.90;;;;;;5040710;28;20025;-51
2021/09/06 00:52:35;;;;;;;9.55;7.72;;;11.30;99.90;;;;;;5042773;28;20020;-50
2021/09/06 00:55:02;;;;;;;10.82;8.25;;;11.30;99.90;;;;;;5040576;28;20033;-50
2021/09/06 00:57:27;;;;;;;9.50;8.02;;;11.30;99.90;;;;;;5038050;28;20025;-55
2021/09/06 00:59:53;;;;;;;10.13;8.13;;;11.20;99.90;;;;;;5040971;28;20037;-54
2021/09/06 01:02:19;;;;;;;9.52;7.80;;;11.20;99.90;;;;;;5035457;28;20026;-46
2021/09/06 01:04:45;;;;;;;9.20;7.50;;;11.20;99.90;;;;;;5042123;28;20282;-47
2021/09/06 01:07:10;;;;;;;10.18;7.10;;;11.10;99.90;;;;;;5021513;28;20017;-48
2021/09/06 01:09:36;;;;;;;10.85;8.60;;;11.10;99.90;;;;;;5042792;28;20402;-54
2021/09/06 01:12:02;;;;;;;11.32;8.32;;;11.10;99.90;;;;;;5033363;28;20025;-48
2021/09/06 01:14:27;;;;;;;11.80;7.88;;;11.00;99.90;;;;;;5042788;28;20116;-52
2021/09/06 01:16:55;;;;;;;13.88;8.80;;;11.00;99.90;;;;;;5033847;28;20033;-48
2021/09/06 01:19:21;;;;;;;8.57;7.38;;;11.00;99.90;;;;;;5032015;28;20022;-48
2021/09/06 01:21:46;;;;;;;10.32;7.57;;;10.90;99.90;;;;;;5039253;28;20029;-50
2021/09/06 01:24:17;;;;;;;10.38;8.35;;;10.90;99.90;;;;;;5038243;28;20109;-52
2021/09/06 01:26:45;;;;;;;12.60;8.32;;;10.90;99.90;;;;;;5042370;28;20159;-48
2021/09/06 01:29:10;;;;;;;8.55;7.25;;;10.90;99.90;;;;;;5038853;28;20083;-51
2021/09/06 01:31:36;;;;;;;9.07;7.00;;;10.90;99.90;;;;;;5042551;28;20017;-49
2021/09/06 01:34:02;;;;;;;14.57;8.95;;;10.80;99.90;;;;;;5039884;28;20083;-46
2021/09/06 01:36:28;;;;;;;13.25;8.68;;;10.80;99.90;;;;;;5037400;28;20072;-48
2021/09/06 01:38:53;;;;;;;12.43;8.57;;;10.80;99.90;;;;;;5025474;28;20502;-47
2021/09/06 01:41:19;;;;;;;10.20;7.53;;;10.80;99.90;;;;;;5037416;28;20454;-49
2021/09/06 01:43:44;;;;;;;11.95;8.43;;;10.80;99.90;;;;;;5025349;28;20139;-47
2021/09/06 01:46:10;;;;;;;12.93;9.82;;;10.80;99.90;;;;;;5038506;28;20036;-47
2021/09/06 01:48:35;;;;;;;12.50;9.20;;;10.70;99.90;;;;;;5042252;28;20028;-48
2021/09/06 01:51:01;;;;;;;10.85;8.70;;;10.70;99.90;;;;;;5038642;28;20033;-50
2021/09/06 01:53:26;;;;;;;10.82;7.93;;;10.70;99.90;;;;;;5019000;28;20001;-51
2021/09/06 01:55:52;;;;;;;10.65;7.53;;;10.70;99.90;;;;;;5043457;28;20408;-47
2021/09/06 01:58:18;;;;;;;11.48;8.07;;;10.70;99.90;;;;;;5037516;28;20491;-50
2021/09/06 02:00:43;;;;;;;9.45;7.72;;;10.60;99.90;;;;;;5041768;22;20049;-48
2021/09/06 02:03:09;;;;;;;10.88;8.30;;;10.70;99.90;;;;;;5041108;28;20013;-50
2021/09/06 02:05:34;;;;;;;12.05;8.52;;;10.60;99.90;;;;;;5018577;28;20549;-51
2021/09/06 02:08:00;;;;;;;12.07;8.57;;;10.60;99.90;;;;;;5042786;28;20502;-50
2021/09/06 02:10:25;;;;;;;9.43;7.32;;;10.60;99.90;;;;;;5036813;28;20055;-52
2021/09/06 02:12:51;;;;;;;9.65;7.57;;;10.50;99.90;;;;;;5043184;28;20083;-50
2021/09/06 02:15:17;;;;;;;10.60;8.20;;;10.50;99.90;;;;;;5036577;28;20072;-50
2021/09/06 02:17:42;;;;;;;13.43;9.10;;;10.50;99.90;;;;;;5042369;28;20052;-49
2021/09/06 02:20:08;;;;;;;10.15;7.90;;;10.50;99.90;;;;;;5038500;28;20029;-50
2021/09/06 02:22:34;;;;;;;10.30;8.00;;;10.40;99.90;;;;;;5036463;28;20013;-50
2021/09/06 02:24:59;;;;;;;11.98;8.10;;;10.40;99.90;;;;;;5042051;28;20461;-50
2021/09/06 02:27:25;;;;;;;8.27;7.20;;;10.40;99.90;;;;;;5036519;28;20407;-50
2021/09/06 02:29:51;;;;;;;10.80;8.07;;;10.40;99.90;;;;;;5039602;28;20104;-50
2021/09/06 02:32:16;;;;;;;10.77;8.02;;;10.40;99.90;;;;;;5036939;28;20076;-50
2021/09/06 02:34:42;;;;;;;10.35;8.15;;;10.30;99.90;;;;;;5030977;28;20022;-50
2021/09/06 02:37:07;;;;;;;9.20;8.02;;;10.30;99.90;;;;;;5042881;28;20033;-48
2021/09/06 02:39:33;;;;;;;12.85;8.60;;;10.30;99.90;;;;;;5036246;28;20040;-50
2021/09/06 02:41:59;;;;;;;13.98;9.07;;;10.30;99.90;;;;;;5043406;28;20092;-50
2021/09/06 02:44:28;;;;;;;13.63;9.40;;;10.30;99.90;;;;;;5036055;28;20434;-50
2021/09/06 02:46:55;;;;;;;9.68;7.95;;;10.30;99.90;;;;;;5044160;28;20064;-53
2021/09/06 02:49:20;;;;;;;9.10;7.38;;;10.20;99.90;;;;;;5030916;28;20074;-49
2021/09/06 02:51:46;;;;;;;10.13;8.15;;;10.20;99.90;;;;;;5018539;28;20096;-51
2021/09/06 02:54:11;;;;;;;9.93;7.50;;;10.20;99.90;;;;;;5042158;28;20055;-50
2021/09/06 02:56:37;;;;;;;8.45;7.07;;;10.20;99.90;;;;;;5035992;28;20125;-51
2021/09/06 02:59:02;;;;;;;13.73;8.30;;;10.20;99.90;;;;;;5043451;28;20369;-52
2021/09/06 03:01:28;;;;;;;8.38;6.93;;;10.20;99.90;;;;;;5035597;28;20142;-51
2021/09/06 03:03:53;;;;;;;9.10;6.40;;;10.10;99.90;;;;;;5025962;28;20024;-51
2021/09/06 03:06:19;;;;;;;10.50;7.63;;;10.10;99.90;;;;;;5030516;28;20036;-51
2021/09/06 03:08:44;;;;;;;11.55;7.95;;;10.10;99.90;;;;;;5035911;28;20400;-50
2021/09/06 03:11:10;;;;;;;9.57;7.60;;;10.10;99.90;;;;;;5042424;28;20028;-52
2021/09/06 03:13:35;;;;;;;10.00;7.72;;;10.10;99.90;;;;;;5035962;28;20107;-52
2021/09/06 03:16:01;;;;;;;9.30;6.82;;;10.10;99.90;;;;;;5043156;28;20087;-50
2021/09/06 03:18:26;;;;;;;10.30;7.65;;;10.10;99.90;;;;;;5035418;28;20054;-51
2021/09/06 03:20:52;;;;;;;11.90;7.57;;;10.10;99.90;;;;;;5043655;28;20091;-50
2021/09/06 03:23:17;;;;;;;15.88;8.68;;;10.00;99.90;;;;;;5018374;28;20438;-53
2021/09/06 03:25:43;;;;;;;11.43;8.82;;;10.00;99.90;;;;;;5035536;28;20698;-51
2021/09/06 03:28:08;;;;;;;10.10;7.80;;;10.00;99.90;;;;;;5035928;28;20036;-51
2021/09/06 03:30:34;;;;;;;12.00;7.88;;;10.00;99.90;;;;;;5035465;28;20068;-52
2021/09/06 03:32:59;;;;;;;8.50;7.10;;;10.00;99.90;;;;;;5033823;28;20021;-50
2021/09/06 03:35:25;;;;;;;11.05;7.20;;;10.00;99.90;;;;;;5040073;28;20083;-51
2021/09/06 03:37:51;;;;;;;8.60;7.38;;;9.90;99.90;;;;;;5041846;28;20408;-53
2021/09/06 03:40:17;;;;;;;9.25;6.90;;;9.90;99.90;;;;;;5042788;28;20656;-51
2021/09/06 03:42:43;;;;;;;10.52;7.10;;;9.80;99.90;;;;;;5043399;28;20029;-52
2021/09/06 03:45:09;;;;;;;9.07;7.20;;;9.80;99.90;;;;;;5041015;28;20490;-53
2021/09/06 03:47:34;;;;;;;7.30;6.13;;;9.80;99.90;;;;;;5045591;28;20526;-52
2021/09/06 03:50:00;;;;;;;6.72;5.47;;;9.70;99.90;;;;;;5037757;28;20064;-50
2021/09/06 03:52:25;;;;;;;7.75;6.30;;;9.80;99.90;;;;;;5025034;28;20430;-51
2021/09/06 03:54:51;;;;;;;8.15;6.28;;;9.70;99.90;;;;;;5041124;28;20064;-50
2021/09/06 03:57:17;;;;;;;8.40;6.45;;;9.70;99.90;;;;;;5042402;28;20029;-50
2021/09/06 03:59:42;;;;;;;12.43;7.55;;;9.70;99.90;;;;;;5025486;28;20044;-50
2021/09/06 04:02:08;;;;;;;10.77;7.40;;;9.70;99.90;;;;;;5023172;28;20029;-50
2021/09/06 04:04:34;;;;;;;12.55;8.13;;;9.60;99.90;;;;;;5045603;28;20064;-53
2021/09/06 04:06:59;;;;;;;9.85;6.88;;;9.70;99.90;;;;;;5040244;28;20025;-51
2021/09/06 04:09:25;;;;;;;10.63;7.57;;;9.60;99.90;;;;;;5042836;28;20029;-50
2021/09/06 04:11:50;;;;;;;15.38;7.85;;;9.60;99.90;;;;;;5041406;28;20018;-50
2021/09/06 04:14:17;;;;;;;11.43;7.95;;;9.60;99.90;;;;;;5024121;28;20017;-50
2021/09/06 04:16:43;;;;;;;9.95;8.20;;;9.60;99.90;;;;;;5042834;28;20112;-51
2021/09/06 04:19:09;;;;;;;11.70;6.97;;;9.60;99.90;;;;;;5041194;28;20072;-51
2021/09/06 04:21:34;;;;;;;9.55;7.50;;;9.60;99.90;;;;;;5044894;28;20045;-50
2021/09/06 04:24:00;;;;;;;11.23;8.35;;;9.60;99.90;;;;;;5039312;28;20032;-51
2021/09/06 04:26:25;;;;;;;11.68;8.00;;;9.60;99.90;;;;;;5042249;28;20035;-53
2021/09/06 04:28:51;;;;;;;10.73;8.23;;;9.50;99.90;;;;;;5034672;28;20030;-51
2021/09/06 04:31:17;;;;;;;10.52;7.68;;;9.50;99.90;;;;;;5041732;28;20033;-51
2021/09/06 04:33:46;;;;;;;16.95;9.23;;;9.50;99.90;;;;;;5042135;28;20091;-50
2021/09/06 04:36:11;;;;;;;15.32;9.93;;;9.40;99.90;;;;;;5038816;28;20057;-50
2021/09/06 04:38:37;;;;;;;13.90;10.13;;;9.40;99.90;;;;;;5042118;28;20059;-50
2021/09/06 04:41:03;;;;;;;13.57;9.60;;;9.40;99.90;;;;;;5040826;28;20028;-51
2021/09/06 04:43:28;;;;;;;11.32;9.18;;;9.40;99.90;;;;;;5041723;28;20132;-52
2021/09/06 04:45:54;;;;;;;15.25;9.48;;;9.40;99.90;;;;;;5041177;28;20086;-50
2021/09/06 04:48:19;;;;;;;12.85;10.40;;;9.30;99.90;;;;;;5040894;28;20021;-51
2021/09/06 04:50:45;;;;;;;13.20;10.38;;;9.40;99.90;;;;;;5042028;28;20495;-50
2021/09/06 04:53:11;;;;;;;12.50;8.85;;;9.30;99.90;;;;;;5039900;28;20416;-49
2021/09/06 04:55:36;;;;;;;10.90;8.23;;;9.40;99.90;;;;;;5023714;28;20032;-51
2021/09/06 04:58:02;;;;;;;12.48;9.68;;;9.40;99.90;;;;;;5040235;28;20033;-51
2021/09/06 05:00:27;;;;;;;11.82;9.05;;;9.40;99.90;;;;;;5041451;28;20025;-50
2021/09/06 05:02:53;;;;;;;10.40;9.18;;;9.30;99.90;;;;;;5041429;28;20067;-52
2021/09/06 05:05:18;;;;;;;10.00;8.13;;;9.40;99.90;;;;;;5041228;28;20120;-51
2021/09/06 05:07:44;;;;;;;9.95;7.97;;;9.40;99.90;;;;;;5041774;28;20021;-50
2021/09/06 05:10:10;;;;;;;9.93;8.38;;;9.40;99.90;;;;;;5039210;28;20018;-51
2021/09/06 05:12:35;;;;;;;9.23;8.25;;;9.40;99.90;;;;;;5041443;28;20024;-52
2021/09/06 05:15:01;;;;;;;9.35;8.35;;;9.40;99.90;;;;;;5039923;28;20028;-51
2021/09/06 05:17:27;;;;;;;8.82;7.95;;;9.50;99.90;;;;;;5041537;28;20107;-50
2021/09/06 05:19:52;;;;;;;8.82;7.30;;;9.50;99.90;;;;;;5041795;28;20025;-53
2021/09/06 05:22:18;;;;;;;8.50;7.60;;;9.50;99.90;;;;;;5044058;28;20075;-54
2021/09/06 05:24:44;;;;;;;7.60;6.75;;;9.60;99.90;;;;;;5040760;28;20025;-50
2021/09/06 05:27:09;;;;;;;7.93;7.13;;;9.60;99.90;;;;;;5038659;28;20025;-52
2021/09/06 05:29:35;;;;;;;9.15;7.88;;;9.60;99.90;;;;;;5034004;28;20100;-53
2021/09/06 05:32:00;;;;;;;8.85;7.95;;;9.60;99.90;;;;;;5039947;28;20025;-50
2021/09/06 05:34:26;;;;;;;10.73;8.43;;;9.60;99.90;;;;;;5019259;28;20147;-54
2021/09/06 05:36:52;;;;;;;9.70;8.25;;;9.70;99.90;;;;;;5025825;28;20044;-52
2021/09/06 05:39:18;;;;;;;10.65;7.85;;;9.60;99.90;;;;;;5037845;28;20031;-53
2021/09/06 05:41:44;;;;;;;14.70;9.77;;;9.70;99.90;;;;;;5025106;28;20111;-51
2021/09/06 05:44:10;;;;;;;12.25;9.52;;;9.70;99.90;;;;;;5038663;28;20021;-53
2021/09/06 05:46:36;;;;;;;15.07;11.23;;;9.80;99.90;;;;;;5036466;28;20090;-52
2021/09/06 05:49:02;;;;;;;13.23;9.77;;;9.80;99.90;;;;;;5021785;28;20036;-50
2021/09/06 05:51:28;;;;;;;14.38;9.90;;;9.90;99.90;;;;;;5037027;28;20018;-50
2021/09/06 05:53:54;;;;;;;12.77;9.32;;;9.90;99.90;;;;;;5043608;28;20029;-51
2021/09/06 05:56:20;;;;;;;14.00;10.07;;;10.00;99.90;;;;;;5033159;28;20025;-50
2021/09/06 05:58:47;;;;;;;12.77;9.80;;;10.00;99.90;;;;;;5024783;28;20055;-51
2021/09/06 06:01:12;;;;;;;13.98;10.15;;;10.00;99.90;;;;;;5037708;28;20155;-52
2021/09/06 06:03:38;;;;;;;15.00;10.27;;;10.10;99.90;;;;;;5029878;28;20054;-50
2021/09/06 06:06:04;;;;;;;13.10;10.00;;;10.20;99.90;;;;;;5022966;28;20045;-51
2021/09/06 06:08:29;;;;;;;14.80;11.05;;;10.20;99.90;;;;;;5014412;28;20022;-50
2021/09/06 06:10:55;;;;;;;14.75;10.85;;;10.30;99.90;;;;;;5028389;28;20025;-51
2021/09/06 06:13:21;;;;;;;13.65;10.48;;;10.30;99.90;;;;;;5035721;28;20018;-51
2021/09/06 06:15:47;;;;;;;14.95;10.85;;;10.30;99.90;;;;;;5041376;28;20437;-49
2021/09/06 06:18:12;;;;;;;14.18;10.13;;;10.40;99.90;;;;;;5036253;28;20021;-52
2021/09/06 06:20:38;;;;;;;13.15;9.93;;;10.50;99.90;;;;;;5035205;28;20400;-52
2021/09/06 06:23:03;;;;;;;14.45;10.38;;;10.50;99.90;;;;;;5041062;28;20395;-50
2021/09/06 06:25:29;;;;;;;13.38;9.90;;;10.50;99.90;;;;;;5034891;28;20097;-53
2021/09/06 06:27:55;;;;;;;12.55;9.18;;;10.60;99.90;;;;;;5035193;28;20017;-50
2021/09/06 06:30:22;;;;;;;10.85;8.20;;;10.70;99.90;;;;;;5036250;28;20018;-50
2021/09/06 06:32:48;;;;;;;11.13;7.38;;;10.80;99.90;;;;;;5036651;28;20017;-50
2021/09/06 06:35:14;;;;;;;9.60;8.00;;;10.90;99.90;;;;;;5038962;28;20404;-50
2021/09/06 06:37:39;;;;;;;11.38;8.48;;;11.00;99.90;;;;;;5039619;28;20032;-51
2021/09/06 06:40:05;;;;;;;10.38;7.90;;;11.10;99.90;;;;;;5013184;28;20030;-50
2021/09/06 06:42:31;;;;;;;12.45;8.80;;;11.10;99.90;;;;;;5041679;28;20040;-50
2021/09/06 06:44:56;;;;;;;13.05;8.38;;;11.20;99.90;;;;;;5036128;28;20029;-51
2021/09/06 06:47:22;;;;;;;10.77;8.32;;;11.30;99.90;;;;;;5044077;28;20087;-50
2021/09/06 06:49:47;;;;;;;11.93;8.80;;;11.40;99.90;;;;;;5035717;28;20030;-50
2021/09/06 06:52:13;;;;;;;11.00;9.10;;;11.50;99.90;;;;;;5038712;28;20036;-50
2021/09/06 06:54:39;;;;;;;12.63;8.75;;;11.60;99.90;;;;;;5039506;28;20155;-49
2021/09/06 06:57:06;;;;;;;13.45;8.50;;;11.70;99.90;;;;;;5037446;28;20456;-50
2021/09/06 06:59:32;;;;;;;11.43;8.77;;;11.90;99.90;;;;;;5041538;28;20396;-50
2021/09/06 07:01:58;;;;;;;11.45;8.98;;;12.00;99.90;;;;;;5036123;28;20099;-50
2021/09/06 07:04:23;;;;;;;10.73;7.97;;;12.10;99.90;;;;;;5043306;28;20033;-51
2021/09/06 07:06:49;;;;;;;9.80;8.75;;;12.20;99.90;;;;;;5017956;28;20048;-50
2021/09/06 07:09:14;;;;;;;12.75;8.40;;;12.20;99.90;;;;;;5038923;28;20027;-52
2021/09/06 07:11:40;;;;;;;11.73;8.55;;;12.30;99.90;;;;;;5038452;28;20685;-50
2021/09/06 07:14:06;;;;;;;10.13;7.57;;;12.40;99.90;;;;;;5037323;28;20072;-50
2021/09/06 07:16:31;;;;;;;13.25;8.95;;;12.60;99.90;;;;;;5041199;28;20649;-52
2021/09/06 07:18:57;;;;;;;12.38;9.20;;;12.70;99.90;;;;;;5036406;28;20062;-48
2021/09/06 07:21:23;;;;;;;12.18;9.00;;;12.80;99.90;;;;;;5043779;28;20030;-51
2021/09/06 07:23:51;;;;;;;14.88;9.95;;;13.00;99.90;;;;;;5035045;28;20029;-50
2021/09/06 07:26:17;;;;;;;17.08;11.68;;;13.30;99.90;;;;;;5038474;28;20027;-50
2021/09/06 07:28:43;;;;;;;12.55;9.10;;;13.50;99.90;;;;;;5032583;28;20116;-49
2021/09/06 07:31:10;;;;;;;15.38;9.70;;;13.60;99.90;;;;;;5037636;28;20488;-50
2021/09/06 07:33:36;;;;;;;12.02;9.05;;;13.70;99.90;;;;;;5038987;28;20505;-51
2021/09/06 07:36:03;;;;;;;12.23;9.38;;;13.80;99.90;;;;;;5037158;28;20029;-50
2021/09/06 07:38:28;;;;;;;14.35;11.20;;;13.90;99.90;;;;;;5039132;28;20031;-50
2021/09/06 07:40:54;;;;;;;11.80;9.05;;;14.00;99.90;;;;;;5037903;28;20017;-52
2021/09/06 07:43:20;;;;;;;14.38;10.20;;;14.20;99.90;;;;;;5039273;28;20037;-49
2021/09/06 07:45:48;;;;;;;14.57;9.40;;;14.30;99.90;;;;;;5038991;28;20035;-50
2021/09/06 07:48:14;;;;;;;13.52;10.38;;;14.40;99.90;;;;;;5038818;28;20017;-50
2021/09/06 07:50:42;;;;;;;18.60;11.57;;;14.60;99.90;;;;;;5039103;28;20025;-50
2021/09/06 07:53:08;;;;;;;13.20;10.68;;;14.70;99.90;;;;;;5037073;28;20010;-51
2021/09/06 07:55:34;;;;;;;13.38;10.55;;;14.80;99.90;;;;;;5038662;28;20068;-50
2021/09/06 07:57:59;;;;;;;17.67;12.38;;;14.90;99.90;;;;;;5037916;28;20031;-50
2021/09/06 08:00:25;;;;;;;16.20;10.63;;;15.00;99.90;;;;;;5038901;28;20116;-50
2021/09/06 08:02:51;;;;;;;16.58;10.85;;;15.10;99.90;;;;;;5058424;22;20052;-53
2021/09/06 08:05:28;;;;;;;12.77;9.35;;;15.10;99.90;;;;;;5019544;28;20164;-49
2021/09/06 08:07:54;;;;;;;15.20;9.90;;;15.20;99.90;;;;;;5039156;28;20017;-48
2021/09/06 08:10:20;;;;;;;16.88;11.57;;;15.20;99.90;;;;;;5037089;28;20036;-48
2021/09/06 08:12:45;;;;;;;15.60;11.30;;;15.30;99.90;;;;;;5039168;28;20032;-49
2021/09/06 08:15:12;;;;;;;14.65;11.68;;;15.50;99.90;;;;;;5037619;28;20021;-49
2021/09/06 08:17:38;;;;;;;18.75;12.60;;;15.70;99.90;;;;;;5038465;28;20124;-50
2021/09/06 08:20:07;;;;;;;15.38;11.95;;;16.00;99.90;;;;;;5038668;28;20025;-47
2021/09/06 08:22:33;;;;;;;17.40;11.82;;;16.30;99.90;;;;;;5023323;28;20032;-51
2021/09/06 08:25:05;;;;;;;17.60;10.15;;;16.60;99.90;;;;;;5041664;28;20036;-52
2021/09/06 08:27:30;;;;;;;16.90;11.27;;;16.90;99.90;;;;;;5038760;28;20152;-49
2021/09/06 08:29:56;;;;;;;14.30;10.50;;;17.10;99.90;;;;;;5046816;28;20089;-51
2021/09/06 08:32:22;;;;;;;14.85;11.23;;;17.40;99.90;;;;;;5038804;28;20050;-50
2021/09/06 08:34:49;;;;;;;12.93;10.73;;;17.60;99.90;;;;;;5038425;28;20029;-50
2021/09/06 08:37:16;;;;;;;16.98;11.35;;;17.80;99.90;;;;;;5044097;28;20017;-52
2021/09/06 08:39:41;;;;;;;18.55;12.68;;;18.00;99.90;;;;;;5038752;28;20021;-53
2021/09/06 08:42:08;;;;;;;14.98;10.45;;;18.20;99.90;;;;;;5026836;28;20029;-48
2021/09/06 08:44:33;;;;;;;19.02;11.48;;;18.30;99.90;;;;;;5022911;28;20036;-48
2021/09/06 08:47:00;;;;;;;14.65;10.98;;;18.40;99.90;;;;;;5019285;28;20024;-49
2021/09/06 08:49:25;;;;;;;18.00;11.25;;;18.60;99.90;;;;;;5023113;28;20025;-51
2021/09/06 08:51:51;;;;;;;17.25;11.63;;;18.80;99.90;;;;;;5019539;28;20092;-51
2021/09/06 08:54:17;;;;;;;14.35;11.23;;;18.90;99.90;;;;;;5006020;28;20017;-51
2021/09/06 08:56:43;;;;;;;12.52;9.98;;;19.00;99.90;;;;;;5020933;28;20084;-52
2021/09/06 08:59:09;;;;;;;13.52;10.93;;;19.20;99.90;;;;;;5037734;28;20126;-52
2021/09/06 09:01:43;;;;;;;16.95;12.18;;;19.40;99.90;;;;;;5031551;28;20075;-53
2021/09/06 09:04:18;;;;;;;15.90;10.27;;;19.40;99.90;;;;;;5038766;28;20026;-56
2021/09/06 09:06:51;;;;;;;13.25;10.05;;;19.50;99.90;;;;;;5030097;28;20109;-48
2021/09/06 09:09:35;;;;;;;17.40;10.73;;;19.70;99.90;;;;;;5038410;28;20554;-50
2021/09/06 09:12:02;;;;;;;12.38;9.02;;;19.80;99.90;;;;;;5031173;28;20021;-48
2021/09/06 09:14:28;;;;;;;15.38;10.10;;;19.80;99.90;;;;;;5031019;28;20018;-48
2021/09/06 09:16:57;;;;;;;12.25;9.65;;;19.70;99.90;;;;;;5031843;28;20032;-53
2021/09/06 09:19:23;;;;;;;14.82;9.90;;;19.70;99.90;;;;;;5024029;28;20026;-54
2021/09/06 09:21:57;;;;;;;14.32;9.82;;;19.60;99.90;;;;;;5038539;28;20029;-55
2021/09/06 09:24:23;;;;;;;13.90;9.80;;;19.70;99.90;;;;;;5032238;28;20064;-55
2021/09/06 09:26:57;;;;;;;13.88;10.38;;;19.70;99.90;;;;;;5023394;28;20051;-50
2021/09/06 09:29:23;;;;;;;12.02;9.88;;;19.70;99.90;;;;;;5039546;28;20051;-52
2021/09/06 09:31:50;;;;;;;13.80;10.30;;;19.70;99.90;;;;;;5040906;28;20622;-52
2021/09/06 09:34:16;;;;;;;12.27;9.00;;;19.80;99.90;;;;;;5037362;28;20016;-51
2021/09/06 09:36:42;;;;;;;13.88;9.95;;;19.90;99.90;;;;;;5042160;28;20029;-50
2021/09/06 09:39:13;;;;;;;12.85;10.25;;;20.00;99.90;;;;;;5039183;28;20120;-53
2021/09/06 09:41:41;;;;;;;15.68;10.70;;;20.10;99.90;;;;;;5024233;28;20033;-48
2021/09/06 09:44:10;;;;;;;15.02;10.45;;;20.10;99.90;;;;;;5038413;28;20049;-54
2021/09/06 09:46:36;;;;;;;12.65;9.52;;;20.00;99.90;;;;;;5040899;28;20056;-51
2021/09/06 09:49:14;;;;;;;12.60;9.57;;;20.20;99.90;;;;;;5039645;28;20055;-53
2021/09/06 09:51:40;;;;;;;14.73;10.85;;;20.30;99.90;;;;;;5037400;28;20021;-52
2021/09/06 09:54:06;;;;;;;15.07;11.18;;;20.40;99.90;;;;;;5043498;28;20428;-55
2021/09/06 09:56:32;;;;;;;16.20;11.57;;;20.40;99.90;;;;;;5036822;28;20026;-53
2021/09/06 09:58:59;;;;;;;11.85;10.50;;;20.50;99.90;;;;;;5044847;28;20043;-53
2021/09/06 10:01:27;;;;;;;14.07;10.55;;;20.50;99.90;;;;;;5036985;28;20538;-52
2021/09/06 10:03:56;;;;;;;12.32;9.30;;;20.50;99.90;;;;;;5027014;28;20529;-49
2021/09/06 10:06:22;;;;;;;12.48;10.20;;;20.50;99.90;;;;;;5031689;28;20129;-52
2021/09/06 10:08:47;;;;;;;15.43;10.68;;;20.40;99.90;;;;;;5036730;28;20121;-50
2021/09/06 10:11:14;;;;;;;15.32;10.35;;;20.40;99.90;;;;;;5043471;28;20056;-48
2021/09/06 10:13:41;;;;;;;13.73;10.50;;;20.20;99.90;;;;;;5038423;28;20087;-48
2021/09/06 10:16:07;;;;;;;13.77;9.80;;;20.30;99.90;;;;;;5044335;28;20025;-54
2021/09/06 10:18:38;;;;;;;13.55;10.70;;;20.10;99.90;;;;;;5036634;28;20399;-54
2021/09/06 10:21:16;;;;;;;15.65;10.27;;;20.10;99.90;;;;;;5043826;28;20025;-55
2021/09/06 10:23:47;;;;;;;14.05;10.48;;;20.10;99.90;;;;;;5036225;28;20036;-49
2021/09/06 10:26:13;;;;;;;12.70;10.38;;;20.10;99.90;;;;;;5037877;28;20025;-52
2021/09/06 10:28:39;;;;;;;13.23;10.15;;;20.10;99.90;;;;;;5040123;28;20029;-51
2021/09/06 10:31:16;;;;;;;15.35;11.48;;;20.10;99.90;;;;;;5031657;28;20472;-49
2021/09/06 10:33:43;;;;;;;15.02;10.27;;;20.10;99.90;;;;;;5027931;28;20024;-50
2021/09/06 10:36:18;;;;;;;13.07;9.90;;;20.10;99.90;;;;;;5031905;28;20136;-52
2021/09/06 10:38:49;;;;;;;14.60;11.18;;;20.20;99.90;;;;;;5027668;28;20026;-48
2021/09/06 10:41:21;;;;;;;13.23;10.30;;;20.20;99.90;;;;;;5031267;28;20056;-47
2021/09/06 10:44:07;;;;;;;13.38;10.48;;;20.20;99.90;;;;;;5029864;28;20029;-51
2021/09/06 10:46:33;;;;;;;14.82;11.18;;;20.30;99.90;;;;;;5014532;28;20052;-48
2021/09/06 10:49:02;;;;;;;13.55;10.27;;;20.30;99.90;;;;;;5018306;28;20076;-49
2021/09/06 10:51:31;;;;;;;14.88;9.20;;;20.30;99.90;;;;;;5028810;28;20049;-49
2021/09/06 10:53:58;;;;;;;14.20;10.60;;;20.30;99.90;;;;;;5030806;28;20029;-52
2021/09/06 10:56:26;;;;;;;13.55;10.32;;;20.30;99.90;;;;;;5028525;28;20040;-54
2021/09/06 10:58:53;;;;;;;12.27;9.07;;;20.30;99.90;;;;;;5031784;28;20745;-49
2021/09/06 11:01:19;;;;;;;10.40;9.23;;;20.30;99.90;;;;;;5034237;28;20113;-49
2021/09/06 11:03:46;;;;;;;12.43;9.80;;;20.30;99.90;;;;;;5032833;28;20112;-47
2021/09/06 11:06:12;;;;;;;11.15;8.90;;;20.30;99.90;;;;;;5018163;28;20071;-53
2021/09/06 11:08:38;;;;;;;12.40;8.85;;;20.30;99.90;;;;;;5010752;28;20025;-48
2021/09/06 11:11:09;;;;;;;12.73;9.30;;;20.40;99.90;;;;;;5037256;28;20025;-47
2021/09/06 11:13:40;;;;;;;15.85;9.80;;;20.30;99.90;;;;;;5028638;28;20391;-50
2021/09/06 11:16:10;;;;;;;15.63;10.30;;;20.30;99.90;;;;;;5031787;28;20024;-47
2021/09/06 11:18:38;;;;;;;10.02;9.00;;;20.40;99.90;;;;;;5029349;28;20041;-49
2021/09/06 11:21:05;;;;;;;12.85;9.40;;;20.50;99.90;;;;;;5014914;28;20063;-48
2021/09/06 11:23:42;;;;;;;11.38;8.98;;;20.70;99.90;;;;;;5029932;28;20036;-54
2021/09/06 11:26:10;;;;;;;10.88;9.15;;;20.80;99.90;;;;;;5042254;28;20060;-52
2021/09/06 11:28:45;;;;;;;10.95;9.57;;;20.80;99.90;;;;;;5039518;28;20676;-52
2021/09/06 11:31:10;;;;;;;12.18;9.07;;;20.70;99.90;;;;;;5044856;28;20423;-53
2021/09/06 11:33:36;;;;;;;13.07;9.48;;;20.70;99.90;;;;;;5042901;28;20086;-47
2021/09/06 11:36:02;;;;;;;13.38;9.65;;;20.70;99.90;;;;;;5031202;28;20029;-52
2021/09/06 11:38:27;;;;;;;10.27;8.73;;;20.70;99.90;;;;;;5043347;28;20033;-50
2021/09/06 11:40:56;;;;;;;9.55;8.55;;;20.60;99.90;;;;;;5039030;28;20395;-52
2021/09/06 11:43:24;;;;;;;9.35;8.10;;;20.60;99.90;;;;;;5012279;28;20030;-53
2021/09/06 11:45:59;;;;;;;10.68;9.05;;;20.70;99.90;;;;;;5012092;28;20558;-48
2021/09/06 11:48:24;;;;;;;10.05;8.32;;;20.80;99.90;;;;;;5011976;28;20447;-49
2021/09/06 11:50:50;;;;;;;10.52;8.07;;;20.90;99.90;;;;;;5011688;28;20105;-53
2021/09/06 11:53:19;;;;;;;11.15;8.85;;;21.00;99.90;;;;;;5014145;28;20021;-49
2021/09/06 11:55:55;;;;;;;11.13;8.68;;;21.00;99.90;;;;;;5023416;28;20057;-50
2021/09/06 11:58:25;;;;;;;10.43;8.18;;;20.80;99.90;;;;;;5032315;28;20024;-48
2021/09/06 12:00:51;;;;;;;8.43;6.95;;;20.60;99.90;;;;;;5031244;28;20063;-50
2021/09/06 12:03:25;;;;;;;9.32;8.10;;;20.50;99.90;;;;;;5036584;28;20039;-50
2021/09/06 12:06:01;;;;;;;12.75;8.55;;;20.50;99.90;;;;;;5033176;28;20083;-52
2021/09/06 12:08:26;;;;;;;11.45;8.15;;;20.60;99.90;;;;;;5029752;28;20017;-51
2021/09/06 12:11:03;;;;;;;8.65;7.65;;;20.70;99.90;;;;;;5039478;28;20060;-52
2021/09/06 12:13:29;;;;;;;10.43;7.60;;;20.90;99.90;;;;;;5029602;28;20026;-50
2021/09/06 12:15:58;;;;;;;11.35;8.50;;;21.00;99.90;;;;;;5033164;28;20044;-53
2021/09/06 12:18:40;;;;;;;9.20;7.60;;;21.10;99.90;;;;;;5033445;28;20028;-53
2021/09/06 12:21:14;;;;;;;11.90;8.45;;;21.20;99.90;;;;;;5039740;28;20032;-51
2021/09/06 12:23:45;;;;;;;11.55;7.55;;;21.10;99.90;;;;;;5031010;28;20048;-53
2021/09/06 12:26:12;;;;;;;10.52;7.93;;;21.10;99.90;;;;;;5040964;28;20056;-49
2021/09/06 12:28:57;;;;;;;11.50;8.73;;;21.20;99.90;;;;;;5042603;28;20017;-51
2021/09/06 12:31:24;;;;;;;9.52;8.35;;;21.40;99.90;;;;;;5031853;28;20104;-54
2021/09/06 12:33:50;;;;;;;9.27;7.90;;;21.50;99.90;;;;;;5042349;28;20096;-51
2021/09/06 12:36:16;;;;;;;11.75;8.60;;;21.60;99.90;;;;;;5038662;28;20056;-49